sensor_id;sensor_type;location;lat;lon;timestamp;pressure;altitude;pressure_sealevel;temperature;humidity
19005;BME280;9635;52.078;8.648;2022-09-28T00:02:00;98479.97;;;7.05;87.05
19005;BME280;9635;52.078;8.648;2022-09-28T00:07:04;98474.56;;;6.88;87.47
19005;BME280;9635;52.078;8.648;2022-09-28T00:12:07;98468.34;;;6.97;86.94
19005;BME280;9635;52.078;8.648;2022-09-28T00:17:11;98472.84;;;6.87;87.22
19005;BME280;9635;52.078;8.648;2022-09-28T00:22:15;98458.50;;;6.97;88.50
19005;BME280;9635;52.078;8.648;2022-09-28T00:27:18;98453.84;;;6.62;87.77
19005;BME280;9635;52.078;8.648;2022-09-28T00:32:21;98441.47;;;6.71;87.40
19005;BME280;9635;52.078;8.648;2022-09-28T00:37:27;98430.53;;;6.64;87.17
19005;BME280;9635;52.078;8.648;2022-09-28T00:42:30;98424.56;;;6.80;88.02
19005;BME280;9635;52.078;8.648;2022-09-28T00:47:39;98404.59;;;6.84;87.93
19005;BME280;9635;52.078;8.648;2022-09-28T00:52:48;98406.28;;;6.85;87.67
19005;BME280;9635;52.078;8.648;2022-09-28T00:57:55;98399.38;;;6.92;88.14
19005;BME280;9635;52.078;8.648;2022-09-28T01:02:59;98385.59;;;6.97;88.86
19005;BME280;9635;52.078;8.648;2022-09-28T01:08:04;98378.97;;;7.01;88.47
19005;BME280;9635;52.078;8.648;2022-09-28T01:13:08;98375.16;;;7.03;88.44
19005;BME280;9635;52.078;8.648;2022-09-28T01:18:16;98375.53;;;7.09;88.67
19005;BME280;9635;52.078;8.648;2022-09-28T01:23:43;98363.34;;;7.06;88.31
19005;BME280;9635;52.078;8.648;2022-09-28T01:28:57;98359.38;;;7.10;88.52
19005;BME280;9635;52.078;8.648;2022-09-28T01:34:04;98354.03;;;7.10;88.24
19005;BME280;9635;52.078;8.648;2022-09-28T01:39:14;98349.00;;;7.07;89.36
19005;BME280;9635;52.078;8.648;2022-09-28T01:44:22;98332.84;;;7.09;88.86
19005;BME280;9635;52.078;8.648;2022-09-28T01:49:30;98331.69;;;7.11;88.77
19005;BME280;9635;52.078;8.648;2022-09-28T01:54:40;98328.84;;;7.13;88.88
19005;BME280;9635;52.078;8.648;2022-09-28T01:59:51;98324.81;;;7.09;89.19
19005;BME280;9635;52.078;8.648;2022-09-28T02:04:58;98322.28;;;7.07;89.11
19005;BME280;9635;52.078;8.648;2022-09-28T02:10:08;98312.31;;;7.09;89.60
19005;BME280;9635;52.078;8.648;2022-09-28T02:15:19;98308.94;;;7.07;89.76
19005;BME280;9635;52.078;8.648;2022-09-28T02:20:22;98322.34;;;6.24;90.62
19005;BME280;9635;52.078;8.648;2022-09-28T02:25:29;98307.00;;;6.81;90.62
19005;BME280;9635;52.078;8.648;2022-09-28T02:30:37;98320.47;;;6.80;90.06
19005;BME280;9635;52.078;8.648;2022-09-28T02:35:41;98315.28;;;7.06;89.94
19005;BME280;9635;52.078;8.648;2022-09-28T02:40:49;98323.81;;;7.10;89.41
19005;BME280;9635;52.078;8.648;2022-09-28T02:46:00;98320.53;;;6.98;89.32
19005;BME280;9635;52.078;8.648;2022-09-28T02:51:19;98324.31;;;7.05;89.37
19005;BME280;9635;52.078;8.648;2022-09-28T02:56:39;98337.72;;;6.85;89.18
19005;BME280;9635;52.078;8.648;2022-09-28T03:01:53;98327.53;;;6.53;89.68
19005;BME280;9635;52.078;8.648;2022-09-28T03:07:02;98335.88;;;6.68;89.30
19005;BME280;9635;52.078;8.648;2022-09-28T03:12:09;98336.47;;;6.62;89.25
19005;BME280;9635;52.078;8.648;2022-09-28T03:17:15;98331.63;;;6.75;89.55
19005;BME280;9635;52.078;8.648;2022-09-28T03:22:18;98337.78;;;6.76;89.58
19005;BME280;9635;52.078;8.648;2022-09-28T03:27:21;98334.03;;;6.69;89.20
19005;BME280;9635;52.078;8.648;2022-09-28T03:32:25;98335.97;;;6.76;89.42
19005;BME280;9635;52.078;8.648;2022-09-28T03:37:28;98334.50;;;6.92;89.07
19005;BME280;9635;52.078;8.648;2022-09-28T03:42:34;98329.72;;;6.85;89.03
19005;BME280;9635;52.078;8.648;2022-09-28T03:47:44;98331.41;;;6.87;88.78
19005;BME280;9635;52.078;8.648;2022-09-28T03:52:46;98330.13;;;6.91;88.54
19005;BME280;9635;52.078;8.648;2022-09-28T03:57:53;98327.47;;;6.91;88.96
19005;BME280;9635;52.078;8.648;2022-09-28T04:02:57;98325.69;;;6.81;88.74
19005;BME280;9635;52.078;8.648;2022-09-28T04:08:01;98321.72;;;6.85;88.87
19005;BME280;9635;52.078;8.648;2022-09-28T04:13:04;98324.06;;;6.71;89.49
19005;BME280;9635;52.078;8.648;2022-09-28T04:18:09;98321.84;;;6.66;89.92
19005;BME280;9635;52.078;8.648;2022-09-28T04:23:29;98323.56;;;6.57;90.20
19005;BME280;9635;52.078;8.648;2022-09-28T04:28:32;98324.22;;;6.42;89.69
19005;BME280;9635;52.078;8.648;2022-09-28T04:34:10;98321.91;;;6.56;90.06
19005;BME280;9635;52.078;8.648;2022-09-28T04:39:16;98312.47;;;6.62;90.23
19005;BME280;9635;52.078;8.648;2022-09-28T04:44:23;98321.25;;;6.72;89.49
19005;BME280;9635;52.078;8.648;2022-09-28T04:49:33;98333.81;;;6.80;88.66
19005;BME280;9635;52.078;8.648;2022-09-28T04:54:47;98326.03;;;6.69;88.88
19005;BME280;9635;52.078;8.648;2022-09-28T04:59:50;98337.41;;;6.71;88.93
19005;BME280;9635;52.078;8.648;2022-09-28T05:04:54;98337.78;;;6.76;88.82
19005;BME280;9635;52.078;8.648;2022-09-28T05:10:19;98335.97;;;6.76;88.73
19005;BME280;9635;52.078;8.648;2022-09-28T05:15:22;98332.84;;;6.81;88.49
19005;BME280;9635;52.078;8.648;2022-09-28T05:20:26;98341.59;;;6.73;88.83
19005;BME280;9635;52.078;8.648;2022-09-28T05:25:30;98353.66;;;6.50;89.51
19005;BME280;9635;52.078;8.648;2022-09-28T05:30:42;98350.91;;;6.69;89.38
19005;BME280;9635;52.078;8.648;2022-09-28T05:36:07;98348.88;;;6.53;89.64
19005;BME280;9635;52.078;8.648;2022-09-28T05:41:11;98352.22;;;6.55;89.24
19005;BME280;9635;52.078;8.648;2022-09-28T05:46:13;98352.97;;;6.48;89.89
19005;BME280;9635;52.078;8.648;2022-09-28T05:51:18;98355.34;;;6.51;89.84
19005;BME280;9635;52.078;8.648;2022-09-28T05:56:21;98354.44;;;6.32;90.76
19005;BME280;9635;52.078;8.648;2022-09-28T06:01:26;98360.72;;;6.41;90.09
19005;BME280;9635;52.078;8.648;2022-09-28T06:06:33;98368.09;;;6.57;90.58
19005;BME280;9635;52.078;8.648;2022-09-28T06:11:36;98363.25;;;6.70;89.41
19005;BME280;9635;52.078;8.648;2022-09-28T06:16:59;98364.16;;;6.89;89.53
19005;BME280;9635;52.078;8.648;2022-09-28T06:22:03;98373.19;;;7.05;89.16
19005;BME280;9635;52.078;8.648;2022-09-28T06:27:12;98377.13;;;7.01;89.07
19005;BME280;9635;52.078;8.648;2022-09-28T06:32:15;98376.78;;;7.14;89.06
19005;BME280;9635;52.078;8.648;2022-09-28T06:37:22;98377.84;;;7.39;89.67
19005;BME280;9635;52.078;8.648;2022-09-28T06:42:26;98377.91;;;7.65;89.59
19005;BME280;9635;52.078;8.648;2022-09-28T06:47:54;98401.78;;;7.85;89.42
19005;BME280;9635;52.078;8.648;2022-09-28T06:53:09;98398.44;;;7.65;88.57
19005;BME280;9635;52.078;8.648;2022-09-28T06:58:24;98403.53;;;7.76;88.91
19005;BME280;9635;52.078;8.648;2022-09-28T07:03:31;98396.50;;;7.93;89.07
19005;BME280;9635;52.078;8.648;2022-09-28T07:09:07;98404.03;;;7.98;88.32
19005;BME280;9635;52.078;8.648;2022-09-28T07:14:53;98403.63;;;7.48;88.05
19005;BME280;9635;52.078;8.648;2022-09-28T07:20:00;98407.53;;;7.72;88.23
19005;BME280;9635;52.078;8.648;2022-09-28T07:25:21;98418.56;;;7.95;88.51
19005;BME280;9635;52.078;8.648;2022-09-28T07:30:42;98416.22;;;8.18;87.85
19005;BME280;9635;52.078;8.648;2022-09-28T07:35:51;98417.19;;;7.91;87.13
19005;BME280;9635;52.078;8.648;2022-09-28T07:40:57;98427.50;;;7.86;87.87
19005;BME280;9635;52.078;8.648;2022-09-28T07:46:21;98428.34;;;7.86;87.39
19005;BME280;9635;52.078;8.648;2022-09-28T07:51:30;98428.59;;;8.19;86.29
19005;BME280;9635;52.078;8.648;2022-09-28T07:56:53;98437.88;;;8.33;86.27
19005;BME280;9635;52.078;8.648;2022-09-28T08:02:19;98435.84;;;8.27;85.99
19005;BME280;9635;52.078;8.648;2022-09-28T08:07:23;98455.25;;;8.29;85.92
19005;BME280;9635;52.078;8.648;2022-09-28T08:12:36;98450.69;;;8.47;85.75
19005;BME280;9635;52.078;8.648;2022-09-28T08:17:54;98455.69;;;8.42;85.02
19005;BME280;9635;52.078;8.648;2022-09-28T08:23:03;98459.41;;;8.23;84.38
19005;BME280;9635;52.078;8.648;2022-09-28T08:28:08;98461.59;;;8.28;84.68
19005;BME280;9635;52.078;8.648;2022-09-28T08:33:18;98465.19;;;8.36;84.62
19005;BME280;9635;52.078;8.648;2022-09-28T08:38:22;98469.59;;;8.28;83.78
19005;BME280;9635;52.078;8.648;2022-09-28T08:44:10;98478.31;;;8.04;83.62
19005;BME280;9635;52.078;8.648;2022-09-28T08:49:45;98483.44;;;7.79;84.40
19005;BME280;9635;52.078;8.648;2022-09-28T08:55:09;98487.00;;;7.70;85.21
19005;BME280;9635;52.078;8.648;2022-09-28T09:00:20;98493.81;;;7.82;85.09
19005;BME280;9635;52.078;8.648;2022-09-28T09:05:32;98496.31;;;7.84;85.16
19005;BME280;9635;52.078;8.648;2022-09-28T09:10:48;98501.53;;;7.85;84.77
19005;BME280;9635;52.078;8.648;2022-09-28T09:16:02;98505.72;;;8.06;84.03
19005;BME280;9635;52.078;8.648;2022-09-28T09:21:39;98503.41;;;8.29;83.17
19005;BME280;9635;52.078;8.648;2022-09-28T09:26:44;98505.34;;;8.45;82.19
19005;BME280;9635;52.078;8.648;2022-09-28T09:32:00;98515.41;;;8.69;81.35
19005;BME280;9635;52.078;8.648;2022-09-28T09:37:21;98520.66;;;8.52;79.38
19005;BME280;9635;52.078;8.648;2022-09-28T09:43:20;98521.41;;;8.89;79.85
19005;BME280;9635;52.078;8.648;2022-09-28T09:48:51;98519.53;;;9.23;78.77
19005;BME280;9635;52.078;8.648;2022-09-28T09:53:59;98534.13;;;9.29;78.12
19005;BME280;9635;52.078;8.648;2022-09-28T09:59:06;98542.78;;;9.15;78.68
19005;BME280;9635;52.078;8.648;2022-09-28T10:04:35;98544.69;;;9.31;80.58
19005;BME280;9635;52.078;8.648;2022-09-28T10:09:53;98553.94;;;9.36;81.89
19005;BME280;9635;52.078;8.648;2022-09-28T10:15:22;98549.75;;;9.42;81.34
19005;BME280;9635;52.078;8.648;2022-09-28T10:20:42;98544.09;;;9.53;81.57
19005;BME280;9635;52.078;8.648;2022-09-28T10:25:58;98550.44;;;9.86;81.76
19005;BME280;9635;52.078;8.648;2022-09-28T10:31:40;98545.78;;;10.05;80.27
19005;BME280;9635;52.078;8.648;2022-09-28T10:36:54;98560.50;;;10.01;78.68
19005;BME280;9635;52.078;8.648;2022-09-28T10:42:05;98559.09;;;9.80;79.85
19005;BME280;9635;52.078;8.648;2022-09-28T10:47:14;98568.94;;;9.63;79.54
19005;BME280;9635;52.078;8.648;2022-09-28T10:52:32;98561.59;;;9.65;79.54
19005;BME280;9635;52.078;8.648;2022-09-28T10:57:37;98577.13;;;9.62;80.69
19005;BME280;9635;52.078;8.648;2022-09-28T11:02:43;98581.19;;;9.32;81.11
19005;BME280;9635;52.078;8.648;2022-09-28T11:07:57;98584.41;;;8.83;82.43
19005;BME280;9635;52.078;8.648;2022-09-28T11:13:09;98586.94;;;8.58;84.42
19005;BME280;9635;52.078;8.648;2022-09-28T11:18:18;98582.50;;;8.67;85.63
19005;BME280;9635;52.078;8.648;2022-09-28T11:23:25;98583.91;;;9.05;87.07
19005;BME280;9635;52.078;8.648;2022-09-28T11:28:42;98585.84;;;9.56;87.65
19005;BME280;9635;52.078;8.648;2022-09-28T11:34:12;98578.81;;;10.13;88.07
19005;BME280;9635;52.078;8.648;2022-09-28T11:39:39;98592.44;;;9.78;85.79
19005;BME280;9635;52.078;8.648;2022-09-28T11:44:47;98602.50;;;8.81;83.38
19005;BME280;9635;52.078;8.648;2022-09-28T11:49:56;98599.69;;;8.11;86.17
19005;BME280;9635;52.078;8.648;2022-09-28T11:55:11;98601.47;;;8.56;87.24
19005;BME280;9635;52.078;8.648;2022-09-28T12:00:18;98593.47;;;8.82;86.47
19005;BME280;9635;52.078;8.648;2022-09-28T12:05:30;98598.22;;;8.96;85.74
19005;BME280;9635;52.078;8.648;2022-09-28T12:10:39;98599.28;;;9.72;88.90
19005;BME280;9635;52.078;8.648;2022-09-28T12:15:54;98601.41;;;9.94;83.78
19005;BME280;9635;52.078;8.648;2022-09-28T12:21:38;98602.84;;;10.48;81.87
19005;BME280;9635;52.078;8.648;2022-09-28T12:26:46;98598.41;;;10.14;81.48
19005;BME280;9635;52.078;8.648;2022-09-28T12:31:58;98600.41;;;10.04;80.27
19005;BME280;9635;52.078;8.648;2022-09-28T12:37:15;98602.81;;;10.23;78.90
19005;BME280;9635;52.078;8.648;2022-09-28T12:42:49;98607.97;;;10.08;77.44
19005;BME280;9635;52.078;8.648;2022-09-28T12:48:05;98608.03;;;10.49;76.62
19005;BME280;9635;52.078;8.648;2022-09-28T12:53:35;98614.41;;;10.32;74.90
19005;BME280;9635;52.078;8.648;2022-09-28T12:58:51;98616.72;;;9.76;75.29
19005;BME280;9635;52.078;8.648;2022-09-28T13:04:16;98617.91;;;9.39;76.68
19005;BME280;9635;52.078;8.648;2022-09-28T13:09:22;98624.28;;;9.38;77.56
19005;BME280;9635;52.078;8.648;2022-09-28T13:20:12;98628.81;;;8.50;79.02
19005;BME280;9635;52.078;8.648;2022-09-28T13:25:19;98628.00;;;8.93;80.84
19005;BME280;9635;52.078;8.648;2022-09-28T13:30:24;98620.22;;;8.82;79.69
19005;BME280;9635;52.078;8.648;2022-09-28T13:35:28;98624.47;;;8.67;77.13
19005;BME280;9635;52.078;8.648;2022-09-28T13:46:19;98622.59;;;10.22;74.63
19005;BME280;9635;52.078;8.648;2022-09-28T13:51:35;98630.03;;;12.82;66.67
19005;BME280;9635;52.078;8.648;2022-09-28T13:56:48;98620.97;;;13.66;69.49
19005;BME280;9635;52.078;8.648;2022-09-28T14:01:57;98623.69;;;16.69;62.27
19005;BME280;9635;52.078;8.648;2022-09-28T14:07:10;98633.28;;;15.62;55.60
19005;BME280;9635;52.078;8.648;2022-09-28T14:12:47;98625.94;;;13.84;61.26
19005;BME280;9635;52.078;8.648;2022-09-28T14:17:58;98634.72;;;10.51;70.60
19005;BME280;9635;52.078;8.648;2022-09-28T14:28:45;98636.72;;;11.06;72.92
19005;BME280;9635;52.078;8.648;2022-09-28T14:33:56;98644.06;;;12.24;69.52
19005;BME280;9635;52.078;8.648;2022-09-28T14:38:59;98636.78;;;14.20;67.01
19005;BME280;9635;52.078;8.648;2022-09-28T14:50:24;98658.88;;;11.88;65.72
19005;BME280;9635;52.078;8.648;2022-09-28T14:55:30;98648.91;;;11.97;70.11
19005;BME280;9635;52.078;8.648;2022-09-28T15:00:34;98653.78;;;12.02;67.19
19005;BME280;9635;52.078;8.648;2022-09-28T15:05:41;98652.78;;;11.94;71.27
19005;BME280;9635;52.078;8.648;2022-09-28T15:10:49;98640.53;;;12.23;72.82
19005;BME280;9635;52.078;8.648;2022-09-28T15:15:54;98642.56;;;12.21;72.61
19005;BME280;9635;52.078;8.648;2022-09-28T15:21:01;98636.97;;;12.31;76.66
19005;BME280;9635;52.078;8.648;2022-09-28T15:26:06;98639.56;;;12.47;75.51
19005;BME280;9635;52.078;8.648;2022-09-28T15:31:16;98653.72;;;12.10;75.53
19005;BME280;9635;52.078;8.648;2022-09-28T15:36:22;98654.00;;;11.84;76.75
19005;BME280;9635;52.078;8.648;2022-09-28T15:41:27;98654.50;;;11.79;78.86
19005;BME280;9635;52.078;8.648;2022-09-28T15:46:30;98660.03;;;11.46;74.63
19005;BME280;9635;52.078;8.648;2022-09-28T15:51:48;98663.94;;;10.95;72.83
19005;BME280;9635;52.078;8.648;2022-09-28T15:56:55;98664.75;;;10.71;76.17
19005;BME280;9635;52.078;8.648;2022-09-28T16:02:02;98671.13;;;11.02;80.00
19005;BME280;9635;52.078;8.648;2022-09-28T16:07:27;98672.34;;;11.16;81.26
19005;BME280;9635;52.078;8.648;2022-09-28T16:12:41;98675.28;;;11.54;79.81
19005;BME280;9635;52.078;8.648;2022-09-28T16:17:51;98677.66;;;12.36;76.96
19005;BME280;9635;52.078;8.648;2022-09-28T16:22:58;98676.72;;;12.98;79.33
19005;BME280;9635;52.078;8.648;2022-09-28T16:28:11;98674.53;;;12.78;72.35
19005;BME280;9635;52.078;8.648;2022-09-28T16:33:27;98689.16;;;12.22;68.34
19005;BME280;9635;52.078;8.648;2022-09-28T16:38:31;98685.97;;;11.79;70.15
19005;BME280;9635;52.078;8.648;2022-09-28T16:43:34;98693.97;;;10.98;71.84
19005;BME280;9635;52.078;8.648;2022-09-28T16:48:40;98699.13;;;10.43;70.52
19005;BME280;9635;52.078;8.648;2022-09-28T16:53:50;98697.69;;;10.14;74.66
19005;BME280;9635;52.078;8.648;2022-09-28T16:59:11;98704.47;;;9.92;78.64
19005;BME280;9635;52.078;8.648;2022-09-28T17:04:14;98707.31;;;9.64;80.11
19005;BME280;9635;52.078;8.648;2022-09-28T17:09:19;98710.03;;;9.38;80.76
19005;BME280;9635;52.078;8.648;2022-09-28T17:14:22;98724.47;;;9.19;80.50
19005;BME280;9635;52.078;8.648;2022-09-28T17:19:25;98727.91;;;9.12;81.41
19005;BME280;9635;52.078;8.648;2022-09-28T17:24:30;98730.66;;;9.02;81.91
19005;BME280;9635;52.078;8.648;2022-09-28T17:29:33;98721.34;;;8.88;81.68
19005;BME280;9635;52.078;8.648;2022-09-28T17:34:36;98735.66;;;8.79;81.51
19005;BME280;9635;52.078;8.648;2022-09-28T17:39:40;98741.06;;;8.69;82.25
19005;BME280;9635;52.078;8.648;2022-09-28T17:44:43;98741.69;;;8.63;82.74
19005;BME280;9635;52.078;8.648;2022-09-28T17:49:47;98746.13;;;8.54;83.07
19005;BME280;9635;52.078;8.648;2022-09-28T17:54:52;98754.75;;;8.48;82.97
19005;BME280;9635;52.078;8.648;2022-09-28T17:59:55;98757.72;;;8.45;83.46
19005;BME280;9635;52.078;8.648;2022-09-28T18:04:59;98758.84;;;8.43;83.21
19005;BME280;9635;52.078;8.648;2022-09-28T18:10:05;98753.94;;;8.38;82.27
19005;BME280;9635;52.078;8.648;2022-09-28T18:15:09;98756.09;;;8.34;82.48
19005;BME280;9635;52.078;8.648;2022-09-28T18:20:12;98757.53;;;8.29;83.11
19005;BME280;9635;52.078;8.648;2022-09-28T18:25:17;98756.44;;;8.22;83.49
19005;BME280;9635;52.078;8.648;2022-09-28T18:30:20;98771.09;;;8.17;83.54
19005;BME280;9635;52.078;8.648;2022-09-28T18:35:23;98771.53;;;8.13;83.82
19005;BME280;9635;52.078;8.648;2022-09-28T18:40:27;98776.59;;;8.06;84.03
19005;BME280;9635;52.078;8.648;2022-09-28T18:45:30;98791.28;;;8.02;84.01
19005;BME280;9635;52.078;8.648;2022-09-28T18:50:33;98782.59;;;7.90;83.86
19005;BME280;9635;52.078;8.648;2022-09-28T18:55:38;98785.28;;;7.81;83.61
19005;BME280;9635;52.078;8.648;2022-09-28T19:00:41;98792.91;;;7.76;83.71
19005;BME280;9635;52.078;8.648;2022-09-28T19:05:44;98799.69;;;7.70;83.11
19005;BME280;9635;52.078;8.648;2022-09-28T19:10:48;98802.22;;;7.71;83.64
19005;BME280;9635;52.078;8.648;2022-09-28T19:15:51;98804.31;;;7.78;83.99
19005;BME280;9635;52.078;8.648;2022-09-28T19:20:54;98801.63;;;7.87;83.33
19005;BME280;9635;52.078;8.648;2022-09-28T19:26:01;98799.38;;;7.83;83.23
19005;BME280;9635;52.078;8.648;2022-09-28T19:31:06;98808.94;;;7.76;83.59
19005;BME280;9635;52.078;8.648;2022-09-28T19:36:11;98797.72;;;7.72;83.59
19005;BME280;9635;52.078;8.648;2022-09-28T19:41:17;98806.44;;;7.64;83.52
19005;BME280;9635;52.078;8.648;2022-09-28T19:46:44;98806.47;;;7.55;83.63
19005;BME280;9635;52.078;8.648;2022-09-28T19:51:48;98818.72;;;7.47;83.61
19005;BME280;9635;52.078;8.648;2022-09-28T19:57:13;98819.00;;;7.44;83.66
19005;BME280;9635;52.078;8.648;2022-09-28T20:02:16;98820.53;;;7.37;83.85
19005;BME280;9635;52.078;8.648;2022-09-28T20:07:19;98830.69;;;7.34;83.99
19005;BME280;9635;52.078;8.648;2022-09-28T20:12:24;98828.56;;;7.37;84.09
19005;BME280;9635;52.078;8.648;2022-09-28T20:17:26;98832.50;;;7.33;84.16
19005;BME280;9635;52.078;8.648;2022-09-28T20:22:29;98838.69;;;7.24;84.42
19005;BME280;9635;52.078;8.648;2022-09-28T20:27:33;98836.88;;;7.24;84.44
19005;BME280;9635;52.078;8.648;2022-09-28T20:32:36;98839.97;;;7.20;84.54
19005;BME280;9635;52.078;8.648;2022-09-28T20:37:39;98849.22;;;7.16;84.86
19005;BME280;9635;52.078;8.648;2022-09-28T20:42:45;98845.03;;;7.13;84.73
19005;BME280;9635;52.078;8.648;2022-09-28T20:47:49;98841.78;;;7.10;84.72
19005;BME280;9635;52.078;8.648;2022-09-28T20:52:51;98840.09;;;7.09;84.63
19005;BME280;9635;52.078;8.648;2022-09-28T20:58:01;98840.09;;;7.09;84.78
19005;BME280;9635;52.078;8.648;2022-09-28T21:03:04;98836.16;;;7.03;84.76
19005;BME280;9635;52.078;8.648;2022-09-28T21:08:07;98839.09;;;7.00;84.71
19005;BME280;9635;52.078;8.648;2022-09-28T21:13:11;98842.75;;;6.99;84.72
19005;BME280;9635;52.078;8.648;2022-09-28T21:18:14;98844.13;;;6.93;84.67
19005;BME280;9635;52.078;8.648;2022-09-28T21:23:17;98843.00;;;6.86;84.78
19005;BME280;9635;52.078;8.648;2022-09-28T21:28:26;98852.41;;;6.80;84.74
19005;BME280;9635;52.078;8.648;2022-09-28T21:33:29;98854.47;;;6.77;84.84
19005;BME280;9635;52.078;8.648;2022-09-28T21:51:12;98867.25;;;6.73;85.10
19005;BME280;9635;52.078;8.648;2022-09-28T21:56:16;98876.81;;;6.76;85.30
19005;BME280;9635;52.078;8.648;2022-09-28T22:01:20;98872.59;;;6.73;85.16
19005;BME280;9635;52.078;8.648;2022-09-28T22:06:26;98879.88;;;6.61;85.08
19005;BME280;9635;52.078;8.648;2022-09-28T22:11:29;98884.50;;;6.59;85.01
19005;BME280;9635;52.078;8.648;2022-09-28T22:16:32;98884.06;;;6.54;85.03
19005;BME280;9635;52.078;8.648;2022-09-28T22:21:37;98890.50;;;6.52;85.23
19005;BME280;9635;52.078;8.648;2022-09-28T22:26:40;98888.94;;;6.49;85.29
19005;BME280;9635;52.078;8.648;2022-09-28T22:31:43;98886.53;;;6.46;85.01
19005;BME280;9635;52.078;8.648;2022-09-28T22:36:47;98893.00;;;6.44;85.46
19005;BME280;9635;52.078;8.648;2022-09-28T22:41:49;98893.00;;;6.44;85.47
19005;BME280;9635;52.078;8.648;2022-09-28T22:46:53;98900.03;;;6.45;85.50
19005;BME280;9635;52.078;8.648;2022-09-28T22:51:57;98910.72;;;6.54;85.46
19005;BME280;9635;52.078;8.648;2022-09-28T22:57:00;98911.88;;;6.61;85.63
19005;BME280;9635;52.078;8.648;2022-09-28T23:02:03;98899.69;;;6.69;85.79
19005;BME280;9635;52.078;8.648;2022-09-28T23:07:07;98904.19;;;6.68;85.61
19005;BME280;9635;52.078;8.648;2022-09-28T23:12:10;98905.16;;;6.67;85.46
19005;BME280;9635;52.078;8.648;2022-09-28T23:17:12;98908.50;;;6.59;85.73
19005;BME280;9635;52.078;8.648;2022-09-28T23:22:17;98907.06;;;6.55;85.74
19005;BME280;9635;52.078;8.648;2022-09-28T23:27:19;98897.13;;;6.57;85.82
19005;BME280;9635;52.078;8.648;2022-09-28T23:32:22;98905.28;;;6.66;85.67
19005;BME280;9635;52.078;8.648;2022-09-28T23:37:33;98902.78;;;6.74;86.25
19005;BME280;9635;52.078;8.648;2022-09-28T23:42:35;98895.84;;;7.02;86.12
19005;BME280;9635;52.078;8.648;2022-09-28T23:47:38;98900.53;;;7.19;85.50
19005;BME280;9635;52.078;8.648;2022-09-28T23:52:42;98920.91;;;7.20;85.30
19005;BME280;9635;52.078;8.648;2022-09-28T23:57:45;98913.19;;;7.08;85.40
